Nissos Mykonos — SYJZ — position and weather

sailwx.info

Track history (hours):
 
Tides and Currents Weather Stations Pressure Air Temp Water Temp Dewpoint Dewpoint Depression Visibility Wind Speed Wind Dir Waves Ship Positions

Nissos Mykonos

Last reported at 2016-Sep-30 10:33 UTC. Time now 2016-Sep-30 13:31 UTC.
Position N 37°57' E 023°38'.

Length 141 m; draft 5.2 m.

Type: Passenger vessel. MMSI: 240389000.

Date/timePositionNaut miles runAvg speedWind from/ knotsBaromVisibWave heightAir tempDewpointWater temp
2016-Sep-30 10:33N 37°57' E 023°38'0 0.0
2016-Sep-30 08:33N 37°57' E 023°38'0 0.0
2016-Sep-30 06:34N 37°57' E 023°38'0 0.0
2016-Sep-30 03:34N 37°57' E 023°38'0 0.0
2016-Sep-30 02:34N 37°57' E 023°38'0 0.0
2016-Sep-29 23:34N 37°57' E 023°38'0 0.0
2016-Sep-29 21:33N 37°57' E 023°38'0 0.0
2016-Sep-29 20:34N 37°57' E 023°38'2 2.0
2016-Sep-29 19:33N 37°55' E 023°37'6722.2
2016-Sep-29 16:33N 37°30' E 024°56'1615.8
2016-Sep-29 15:33N 37°27' E 025°15'1212.1
2016-Sep-29 14:33N 37°33' E 025°29'31 1.4
2016-Sep-28 16:34N 37°32' E 024°50'6215.4
2016-Sep-28 12:33N 37°57' E 023°38'0 0.0
2016-Sep-28 08:33N 37°57' E 023°38'0 0.0
2016-Sep-28 03:33N 37°57' E 023°38'0 0.0
2016-Sep-28 02:33N 37°57' E 023°38'0 0.0
2016-Sep-28 01:33N 37°57' E 023°38'0 0.0
2016-Sep-27 23:33N 37°57' E 023°38'0 0.0
2016-Sep-27 19:33N 37°57' E 023°38'8516.9
2016-Sep-27 14:32N 37°34' E 025°22'83 3.3
2016-Sep-26 13:33N 37°48' E 023°38'9 4.6
2016-Sep-26 11:33N 37°57' E 023°38'0 0.0
2016-Sep-26 02:33N 37°57' E 023°38'0 0.0
2016-Sep-26 01:33N 37°57' E 023°38'0 0.0
2016-Sep-26 00:33N 37°57' E 023°38'0 0.0
2016-Sep-25 21:33N 37°57' E 023°38'6212.3
2016-Sep-25 16:27N 37°31' E 024°50'1111.3
2016-Sep-25 15:29N 37°27' E 025°03'1614.6
2016-Sep-25 14:25N 37°32' E 025°22'4 0.1
2016-Sep-24 09:04N 37°30' E 025°18'8315.1
2016-Sep-24 03:33N 37°57' E 023°38'0 0.0
2016-Sep-24 02:34N 37°57' E 023°38'0 0.0
2016-Sep-24 01:34N 37°57' E 023°38'0 0.0
2016-Sep-24 00:34N 37°57' E 023°38'0 0.0
2016-Sep-23 19:34N 37°57' E 023°38'0 0.0
2016-Sep-23 17:34N 37°57' E 023°38'0 0.0
2016-Sep-23 16:33N 37°57' E 023°38'0 0.0
2016-Sep-23 15:34N 37°57' E 023°38'0 0.0
2016-Sep-23 13:34N 37°57' E 023°38'0 0.0
2016-Sep-23 09:34N 37°57' E 023°38'0 0.0
2016-Sep-23 06:34N 37°57' E 023°38'0 0.0
2016-Sep-23 04:34N 37°57' E 023°38'0 0.0
2016-Sep-23 03:34N 37°57' E 023°38'0 0.0
2016-Sep-23 02:34N 37°57' E 023°38'0 0.0
2016-Sep-23 01:34N 37°57' E 023°38'0 0.0
2016-Sep-23 00:33N 37°57' E 023°38'0 0.0
2016-Sep-22 23:34N 37°57' E 023°38'0 0.0
2016-Sep-22 20:34N 37°57' E 023°38'63 2.2
2016-Sep-21 16:32N 37°32' E 024°51'63 9.0
2016-Sep-21 09:34N 37°57' E 023°38'0 0.0
2016-Sep-21 08:33N 37°57' E 023°38'0 0.0
2016-Sep-21 05:33N 37°57' E 023°38'0 0.0
2016-Sep-21 03:33N 37°57' E 023°38'0 0.0
2016-Sep-21 02:33N 37°57' E 023°38'91 7.5
2016-Sep-20 14:28N 37°32' E 025°29'  
Track history (hours):
 
Tides and Currents Weather Stations Pressure Air Temp Water Temp Dewpoint Dewpoint Depression Visibility Wind Speed Wind Dir Waves Ship Positions

Nissos Mykonos

Last reported at 2016-Sep-30 10:33 UTC. Time now 2016-Sep-30 13:31 UTC.
Position N 37°57' E 023°38'.

Length 141 m; draft 5.2 m.

Type: Passenger vessel. MMSI: 240389000.

Date/timePositionNaut miles runAvg speedWind from/ knotsBaromVisibWave heightAir tempDewpointWater temp
2016-Sep-30 10:33N 37°57' E 023°38'0 0.0
2016-Sep-30 08:33N 37°57' E 023°38'0 0.0
2016-Sep-30 06:34N 37°57' E 023°38'0 0.0
2016-Sep-30 03:34N 37°57' E 023°38'0 0.0
2016-Sep-30 02:34N 37°57' E 023°38'0 0.0
2016-Sep-29 23:34N 37°57' E 023°38'0 0.0
2016-Sep-29 21:33N 37°57' E 023°38'0 0.0
2016-Sep-29 20:34N 37°57' E 023°38'2 2.0
2016-Sep-29 19:33N 37°55' E 023°37'6722.2
2016-Sep-29 16:33N 37°30' E 024°56'1615.8
2016-Sep-29 15:33N 37°27' E 025°15'1212.1
2016-Sep-29 14:33N 37°33' E 025°29'31 1.4
2016-Sep-28 16:34N 37°32' E 024°50'6215.4
2016-Sep-28 12:33N 37°57' E 023°38'0 0.0
2016-Sep-28 08:33N 37°57' E 023°38'0 0.0
2016-Sep-28 03:33N 37°57' E 023°38'0 0.0
2016-Sep-28 02:33N 37°57' E 023°38'0 0.0
2016-Sep-28 01:33N 37°57' E 023°38'0 0.0
2016-Sep-27 23:33N 37°57' E 023°38'0 0.0
2016-Sep-27 19:33N 37°57' E 023°38'8516.9
2016-Sep-27 14:32N 37°34' E 025°22'83 3.3
2016-Sep-26 13:33N 37°48' E 023°38'9 4.6
2016-Sep-26 11:33N 37°57' E 023°38'0 0.0
2016-Sep-26 02:33N 37°57' E 023°38'0 0.0
2016-Sep-26 01:33N 37°57' E 023°38'0 0.0
2016-Sep-26 00:33N 37°57' E 023°38'0 0.0
2016-Sep-25 21:33N 37°57' E 023°38'6212.3
2016-Sep-25 16:27N 37°31' E 024°50'1111.3
2016-Sep-25 15:29N 37°27' E 025°03'1614.6
2016-Sep-25 14:25N 37°32' E 025°22'4 0.1
2016-Sep-24 09:04N 37°30' E 025°18'8315.1
2016-Sep-24 03:33N 37°57' E 023°38'0 0.0
2016-Sep-24 02:34N 37°57' E 023°38'0 0.0
2016-Sep-24 01:34N 37°57' E 023°38'0 0.0
2016-Sep-24 00:34N 37°57' E 023°38'0 0.0
2016-Sep-23 19:34N 37°57' E 023°38'0 0.0
2016-Sep-23 17:34N 37°57' E 023°38'0 0.0
2016-Sep-23 16:33N 37°57' E 023°38'0 0.0
2016-Sep-23 15:34N 37°57' E 023°38'0 0.0
2016-Sep-23 13:34N 37°57' E 023°38'0 0.0
2016-Sep-23 09:34N 37°57' E 023°38'0 0.0
2016-Sep-23 06:34N 37°57' E 023°38'0 0.0
2016-Sep-23 04:34N 37°57' E 023°38'0 0.0
2016-Sep-23 03:34N 37°57' E 023°38'0 0.0
2016-Sep-23 02:34N 37°57' E 023°38'0 0.0
2016-Sep-23 01:34N 37°57' E 023°38'0 0.0
2016-Sep-23 00:33N 37°57' E 023°38'0 0.0
2016-Sep-22 23:34N 37°57' E 023°38'0 0.0
2016-Sep-22 20:34N 37°57' E 023°38'63 2.2
2016-Sep-21 16:32N 37°32' E 024°51'63 9.0
2016-Sep-21 09:34N 37°57' E 023°38'0 0.0
2016-Sep-21 08:33N 37°57' E 023°38'0 0.0
2016-Sep-21 05:33N 37°57' E 023°38'0 0.0
2016-Sep-21 03:33N 37°57' E 023°38'0 0.0
2016-Sep-21 02:33N 37°57' E 023°38'91 7.5
2016-Sep-20 14:28N 37°32' E 025°29'  

Dump ship's entire track history